TAM2005 SPJC-SPZO
Flight info
| Callsign | TAM2005 |
|---|---|
| Flight time | 1h 10m |
| Altitude | 29000 |
| Route | JCL DCT LPA DCT AND DCT ZCO |
| Aircraft | F28/M-SDFIRWY/H |
Departure
| Time | 2026-04-27 13:38 |
|---|---|
| Airport | Jorge Chávez International Airport (SPJC) |
Arrival
| Time | 2026-04-27 14:48 |
|---|---|
| Airport | Alejandro Velasco Astete International Airport (SPZO) |
| Time | Latitude | Longitude | Altitude | Speed | Heading |
|---|---|---|---|---|---|
| 2026-04-27 13:07 | -12.02404 | -77.10905 | 89 ft | 0 kts | 64° |
| 2026-04-27 13:22 | -12.02407 | -77.10911 | 92 ft | 3 kts | 64° |
| 2026-04-27 13:22 | -12.02417 | -77.10932 | 92 ft | 3 kts | 64° |
| 2026-04-27 13:23 | -12.02427 | -77.10953 | 89 ft | 3 kts | 64° |
| 2026-04-27 13:23 | -12.02437 | -77.10974 | 90 ft | 3 kts | 64° |
| 2026-04-27 13:23 | -12.02446 | -77.10995 | 92 ft | 3 kts | 64° |
| 2026-04-27 13:23 | -12.02456 | -77.11015 | 91 ft | 3 kts | 64° |
| 2026-04-27 13:24 | -12.02465 | -77.11032 | 92 ft | 3 kts | 64° |
| 2026-04-27 13:24 | -12.02472 | -77.11054 | 88 ft | 3 kts | 83° |
| 2026-04-27 13:24 | -12.02469 | -77.11071 | 90 ft | 0 kts | 119° |
| 2026-04-27 13:29 | -12.02469 | -77.11070 | 90 ft | 0 kts | 104° |
| 2026-04-27 13:29 | -12.02468 | -77.11067 | 90 ft | 1 kts | 66° |
| 2026-04-27 13:30 | -12.02455 | -77.11069 | 92 ft | 6 kts | 326° |
| 2026-04-27 13:30 | -12.02433 | -77.11097 | 92 ft | 10 kts | 314° |
| 2026-04-27 13:30 | -12.02358 | -77.11138 | 87 ft | 12 kts | 335° |
| 2026-04-27 13:30 | -12.02281 | -77.11175 | 88 ft | 12 kts | 335° |
| 2026-04-27 13:31 | -12.02202 | -77.11214 | 83 ft | 13 kts | 334° |
| 2026-04-27 13:31 | -12.02118 | -77.11256 | 81 ft | 14 kts | 333° |
| 2026-04-27 13:31 | -12.02031 | -77.11298 | 73 ft | 14 kts | 333° |
| 2026-04-27 13:31 | -12.01943 | -77.11343 | 76 ft | 14 kts | 333° |
| 2026-04-27 13:32 | -12.01852 | -77.11388 | 69 ft | 15 kts | 335° |
| 2026-04-27 13:32 | -12.01759 | -77.11433 | 72 ft | 15 kts | 334° |
| 2026-04-27 13:32 | -12.01669 | -77.11477 | 67 ft | 14 kts | 334° |
| 2026-04-27 13:32 | -12.01579 | -77.11521 | 68 ft | 14 kts | 334° |
| 2026-04-27 13:33 | -12.01492 | -77.11564 | 64 ft | 14 kts | 334° |
| 2026-04-27 13:33 | -12.01407 | -77.11607 | 67 ft | 13 kts | 334° |
| 2026-04-27 13:33 | -12.01324 | -77.11648 | 67 ft | 14 kts | 334° |
| 2026-04-27 13:33 | -12.01239 | -77.11691 | 62 ft | 14 kts | 333° |
| 2026-04-27 13:34 | -12.01157 | -77.11735 | 63 ft | 13 kts | 335° |
| 2026-04-27 13:34 | -12.01074 | -77.11774 | 58 ft | 13 kts | 334° |
| 2026-04-27 13:34 | -12.00990 | -77.11815 | 57 ft | 13 kts | 335° |
| 2026-04-27 13:34 | -12.00906 | -77.11856 | 59 ft | 14 kts | 334° |
| 2026-04-27 13:35 | -12.00822 | -77.11898 | 57 ft | 13 kts | 336° |
| 2026-04-27 13:35 | -12.00743 | -77.11936 | 55 ft | 10 kts | 333° |
| 2026-04-27 13:35 | -12.00707 | -77.11955 | 53 ft | 5 kts | 328° |
| 2026-04-27 13:35 | -12.00689 | -77.11975 | 53 ft | 4 kts | 297° |
| 2026-04-27 13:36 | -12.00684 | -77.12007 | 54 ft | 5 kts | 260° |
| 2026-04-27 13:36 | -12.00699 | -77.12046 | 52 ft | 7 kts | 248° |
| 2026-04-27 13:36 | -12.00720 | -77.12095 | 49 ft | 4 kts | 239° |
| 2026-04-27 13:36 | -12.00731 | -77.12102 | 50 ft | 4 kts | 195° |
| 2026-04-27 13:37 | -12.00773 | -77.12107 | 50 ft | 10 kts | 186° |
| 2026-04-27 13:37 | -12.00872 | -77.12082 | 49 ft | 20 kts | 154° |
| 2026-04-27 13:37 | -12.01024 | -77.12008 | 53 ft | 28 kts | 153° |
| 2026-04-27 13:37 | -12.01400 | -77.11823 | 63 ft | 98 kts | 153° |
| 2026-04-27 13:38 | -12.02233 | -77.11410 | 212 ft | 158 kts | 152° |
| 2026-04-27 13:38 | -12.03340 | -77.10873 | 948 ft | 186 kts | 156° |
| 2026-04-27 13:38 | -12.04547 | -77.10304 | 2067 ft | 201 kts | 156° |
| 2026-04-27 13:38 | -12.05691 | -77.09699 | 3529 ft | 182 kts | 146° |
| 2026-04-27 13:39 | -12.06758 | -77.08902 | 4469 ft | 192 kts | 141° |
| 2026-04-27 13:39 | -12.07844 | -77.07997 | 5299 ft | 219 kts | 139° |
| 2026-04-27 13:39 | -12.09020 | -77.06870 | 6108 ft | 233 kts | 133° |
| 2026-04-27 13:39 | -12.10001 | -77.05738 | 7795 ft | 197 kts | 130° |
| 2026-04-27 13:40 | -12.10823 | -77.04703 | 9254 ft | 179 kts | 126° |
| 2026-04-27 13:40 | -12.11555 | -77.03700 | 10299 ft | 176 kts | 126° |
| 2026-04-27 13:40 | -12.12307 | -77.02744 | 11238 ft | 169 kts | 135° |
| 2026-04-27 13:40 | -12.13162 | -77.01946 | 12116 ft | 167 kts | 139° |
| 2026-04-27 13:41 | -12.14053 | -77.01150 | 12821 ft | 173 kts | 134° |
| 2026-04-27 13:41 | -12.14870 | -77.00249 | 13557 ft | 177 kts | 131° |
| 2026-04-27 13:41 | -12.15848 | -76.99463 | 14206 ft | 182 kts | 147° |
| 2026-04-27 13:41 | -12.16791 | -76.98617 | 14824 ft | 186 kts | 121° |
| 2026-04-27 13:42 | -12.17436 | -76.97480 | 15545 ft | 181 kts | 116° |
| 2026-04-27 13:42 | -12.18007 | -76.96342 | 16245 ft | 182 kts | 115° |
| 2026-04-27 13:42 | -12.18601 | -76.95108 | 16538 ft | 207 kts | 114° |
| 2026-04-27 13:42 | -12.19263 | -76.93701 | 16894 ft | 224 kts | 114° |
| 2026-04-27 13:43 | -12.19941 | -76.92238 | 17308 ft | 230 kts | 114° |
| 2026-04-27 13:43 | -12.20631 | -76.90745 | 17730 ft | 233 kts | 114° |
| 2026-04-27 13:43 | -12.21323 | -76.89218 | 17911 ft | 243 kts | 113° |
| 2026-04-27 13:43 | -12.22047 | -76.87600 | 17943 ft | 257 kts | 113° |
| 2026-04-27 13:44 | -12.22825 | -76.85889 | 17957 ft | 274 kts | 114° |
| 2026-04-27 13:44 | -12.23687 | -76.84083 | 17968 ft | 293 kts | 115° |
| 2026-04-27 13:44 | -12.24627 | -76.82157 | 17977 ft | 312 kts | 115° |
| 2026-04-27 13:44 | -12.25616 | -76.80148 | 18015 ft | 328 kts | 115° |
| 2026-04-27 13:45 | -12.26652 | -76.78049 | 18448 ft | 332 kts | 115° |
| 2026-04-27 13:45 | -12.27688 | -76.75960 | 19014 ft | 328 kts | 115° |
| 2026-04-27 13:45 | -12.28715 | -76.73894 | 19541 ft | 325 kts | 115° |
| 2026-04-27 13:45 | -12.29732 | -76.71846 | 20052 ft | 322 kts | 115° |
| 2026-04-27 13:46 | -12.30743 | -76.69808 | 20557 ft | 320 kts | 115° |
| 2026-04-27 13:46 | -12.31743 | -76.67788 | 21046 ft | 318 kts | 115° |
| 2026-04-27 13:46 | -12.32738 | -76.65780 | 21526 ft | 316 kts | 115° |
| 2026-04-27 13:46 | -12.33726 | -76.63784 | 22044 ft | 314 kts | 115° |
| 2026-04-27 13:47 | -12.34721 | -76.61772 | 22506 ft | 312 kts | 115° |
| 2026-04-27 13:47 | -12.35700 | -76.59793 | 22955 ft | 311 kts | 115° |
| 2026-04-27 13:47 | -12.36659 | -76.57852 | 23382 ft | 309 kts | 115° |
| 2026-04-27 13:47 | -12.37639 | -76.55869 | 23807 ft | 308 kts | 115° |
| 2026-04-27 13:48 | -12.38590 | -76.53943 | 24146 ft | 307 kts | 115° |
| 2026-04-27 13:48 | -12.39550 | -76.51999 | 24476 ft | 306 kts | 115° |
| 2026-04-27 13:48 | -12.40506 | -76.50061 | 24858 ft | 305 kts | 115° |
| 2026-04-27 13:48 | -12.41463 | -76.48130 | 25176 ft | 304 kts | 115° |
| 2026-04-27 13:49 | -12.42419 | -76.46202 | 25468 ft | 304 kts | 115° |
| 2026-04-27 13:49 | -12.43365 | -76.44274 | 25747 ft | 303 kts | 114° |
| 2026-04-27 13:49 | -12.44252 | -76.42321 | 26013 ft | 303 kts | 113° |
| 2026-04-27 13:49 | -12.45115 | -76.40357 | 26288 ft | 302 kts | 112° |
| 2026-04-27 13:50 | -12.45968 | -76.38387 | 26582 ft | 302 kts | 112° |
| 2026-04-27 13:50 | -12.46711 | -76.36383 | 26837 ft | 301 kts | 101° |
| 2026-04-27 13:50 | -12.47070 | -76.34278 | 27160 ft | 300 kts | 96° |
| 2026-04-27 13:50 | -12.47330 | -76.32161 | 27428 ft | 300 kts | 95° |
| 2026-04-27 13:51 | -12.47556 | -76.30042 | 27683 ft | 300 kts | 94° |
| 2026-04-27 13:51 | -12.47769 | -76.27920 | 27944 ft | 300 kts | 94° |
| 2026-04-27 13:51 | -12.47975 | -76.25798 | 28190 ft | 300 kts | 94° |
| 2026-04-27 13:51 | -12.48185 | -76.23674 | 28450 ft | 300 kts | 96° |
| 2026-04-27 13:52 | -12.48662 | -76.21588 | 28695 ft | 302 kts | 108° |
| 2026-04-27 13:52 | -12.49424 | -76.19582 | 28985 ft | 303 kts | 111° |
| 2026-04-27 13:52 | -12.50389 | -76.17671 | 29193 ft | 305 kts | 129° |
| 2026-04-27 13:52 | -12.51887 | -76.16115 | 29289 ft | 311 kts | 138° |
| 2026-04-27 13:53 | -12.54519 | -76.12513 | 29308 ft | 326 kts | 117° |
| 2026-04-27 13:53 | -12.55562 | -76.10423 | 29278 ft | 333 kts | 115° |
| 2026-04-27 13:54 | -12.57575 | -76.06020 | 29364 ft | 350 kts | 113° |
| 2026-04-27 13:54 | -12.59635 | -76.01367 | 29366 ft | 367 kts | 113° |
| 2026-04-27 13:55 | -12.61801 | -75.96515 | 29344 ft | 382 kts | 114° |
| 2026-04-27 13:55 | -12.64150 | -75.91516 | 29416 ft | 397 kts | 115° |
| 2026-04-27 13:56 | -12.66603 | -75.86340 | 29402 ft | 411 kts | 115° |
| 2026-04-27 13:56 | -12.69132 | -75.81000 | 29345 ft | 422 kts | 115° |
| 2026-04-27 13:57 | -12.71699 | -75.75573 | 29402 ft | 432 kts | 115° |
| 2026-04-27 13:57 | -12.74358 | -75.69981 | 29397 ft | 441 kts | 115° |
| 2026-04-27 13:58 | -12.77059 | -75.64283 | 29389 ft | 449 kts | 115° |
| 2026-04-27 13:58 | -12.79802 | -75.58483 | 29441 ft | 455 kts | 114° |
| 2026-04-27 13:59 | -12.82571 | -75.52609 | 29396 ft | 461 kts | 115° |
| 2026-04-27 13:59 | -12.85370 | -75.46667 | 29436 ft | 465 kts | 115° |
| 2026-04-27 14:00 | -12.88189 | -75.40662 | 29438 ft | 469 kts | 114° |
| 2026-04-27 14:00 | -12.91023 | -75.34624 | 29471 ft | 472 kts | 115° |
| 2026-04-27 14:01 | -12.93866 | -75.28537 | 29428 ft | 474 kts | 114° |
| 2026-04-27 14:01 | -12.96645 | -75.22399 | 29429 ft | 475 kts | 110° |
| 2026-04-27 14:02 | -12.98890 | -75.16023 | 29463 ft | 476 kts | 108° |
| 2026-04-27 14:02 | -13.00909 | -75.09570 | 29447 ft | 465 kts | 104° |
| 2026-04-27 14:02 | -13.01750 | -75.06453 | 29461 ft | 447 kts | 104° |
| 2026-04-27 14:03 | -13.02542 | -75.03398 | 29447 ft | 439 kts | 103° |
| 2026-04-27 14:03 | -13.04052 | -74.97441 | 29437 ft | 424 kts | 103° |
| 2026-04-27 14:04 | -13.05493 | -74.91702 | 29428 ft | 413 kts | 103° |
| 2026-04-27 14:04 | -13.07149 | -74.86144 | 29423 ft | 403 kts | 110° |
| 2026-04-27 14:05 | -13.09308 | -74.80907 | 29427 ft | 395 kts | 113° |
| 2026-04-27 14:05 | -13.11594 | -74.75843 | 29443 ft | 387 kts | 114° |
| 2026-04-27 14:06 | -13.13862 | -74.70879 | 29441 ft | 381 kts | 114° |
| 2026-04-27 14:06 | -13.16101 | -74.66002 | 29439 ft | 375 kts | 114° |
| 2026-04-27 14:07 | -13.18302 | -74.61191 | 29429 ft | 370 kts | 114° |
| 2026-04-27 14:07 | -13.20542 | -74.56452 | 29428 ft | 372 kts | 116° |
| 2026-04-27 14:08 | -13.22986 | -74.51644 | 29449 ft | 387 kts | 116° |
| 2026-04-27 14:08 | -13.25037 | -74.46447 | 29470 ft | 399 kts | 108° |
| 2026-04-27 14:09 | -13.26928 | -74.40992 | 29475 ft | 412 kts | 111° |
| 2026-04-27 14:09 | -13.29271 | -74.35539 | 29487 ft | 423 kts | 113° |
| 2026-04-27 14:10 | -13.31744 | -74.29985 | 29485 ft | 432 kts | 114° |
| 2026-04-27 14:10 | -13.34275 | -74.24330 | 29475 ft | 439 kts | 114° |
| 2026-04-27 14:11 | -13.36836 | -74.18580 | 29436 ft | 446 kts | 114° |
| 2026-04-27 14:11 | -13.38125 | -74.15660 | 29077 ft | 448 kts | 114° |
| 2026-04-27 14:11 | -13.39375 | -74.12820 | 28625 ft | 424 kts | 114° |
| 2026-04-27 14:11 | -13.40550 | -74.10153 | 28195 ft | 395 kts | 114° |
| 2026-04-27 14:12 | -13.41638 | -74.07690 | 27758 ft | 362 kts | 114° |
| 2026-04-27 14:12 | -13.42648 | -74.05410 | 27302 ft | 345 kts | 114° |
| 2026-04-27 14:12 | -13.43599 | -74.03175 | 26867 ft | 338 kts | 112° |
| 2026-04-27 14:12 | -13.44191 | -74.01706 | 26592 ft | 333 kts | 111° |
| 2026-04-27 14:13 | -13.45326 | -73.98818 | 26061 ft | 325 kts | 110° |
| 2026-04-27 14:13 | -13.46152 | -73.96680 | 25666 ft | 319 kts | 111° |
| 2026-04-27 14:13 | -13.46958 | -73.94576 | 25282 ft | 314 kts | 111° |
| 2026-04-27 14:13 | -13.47751 | -73.92505 | 24903 ft | 309 kts | 110° |
| 2026-04-27 14:14 | -13.48560 | -73.90475 | 24536 ft | 305 kts | 112° |
| 2026-04-27 14:14 | -13.49382 | -73.88481 | 24174 ft | 301 kts | 112° |
| 2026-04-27 14:14 | -13.50201 | -73.86516 | 23769 ft | 298 kts | 112° |
| 2026-04-27 14:14 | -13.51016 | -73.84570 | 23342 ft | 294 kts | 112° |
| 2026-04-27 14:15 | -13.51561 | -73.83271 | 23055 ft | 292 kts | 112° |
| 2026-04-27 14:15 | -13.52606 | -73.80800 | 22949 ft | 272 kts | 113° |
| 2026-04-27 14:15 | -13.53347 | -73.79050 | 22882 ft | 259 kts | 112° |
| 2026-04-27 14:15 | -13.53820 | -73.77929 | 22933 ft | 248 kts | 112° |
| 2026-04-27 14:16 | -13.54491 | -73.76337 | 23031 ft | 241 kts | 112° |
| 2026-04-27 14:16 | -13.55152 | -73.74771 | 23142 ft | 237 kts | 112° |
| 2026-04-27 14:16 | -13.55799 | -73.73243 | 23247 ft | 237 kts | 112° |
| 2026-04-27 14:16 | -13.56460 | -73.71674 | 23400 ft | 241 kts | 112° |
| 2026-04-27 14:17 | -13.57136 | -73.70060 | 23409 ft | 251 kts | 112° |
| 2026-04-27 14:17 | -13.57839 | -73.68375 | 23439 ft | 262 kts | 111° |
| 2026-04-27 14:17 | -13.58577 | -73.66610 | 23468 ft | 275 kts | 112° |
| 2026-04-27 14:17 | -13.59356 | -73.64751 | 23487 ft | 290 kts | 112° |
| 2026-04-27 14:18 | -13.60194 | -73.62809 | 23506 ft | 305 kts | 114° |
| 2026-04-27 14:18 | -13.61136 | -73.60803 | 23527 ft | 319 kts | 115° |
| 2026-04-27 14:18 | -13.62145 | -73.58716 | 23545 ft | 333 kts | 116° |
| 2026-04-27 14:18 | -13.63207 | -73.56545 | 23561 ft | 347 kts | 116° |
| 2026-04-27 14:19 | -13.64319 | -73.54292 | 23577 ft | 360 kts | 116° |
| 2026-04-27 14:19 | -13.65470 | -73.51954 | 23591 ft | 373 kts | 116° |
| 2026-04-27 14:19 | -13.66654 | -73.49534 | 23611 ft | 385 kts | 116° |
| 2026-04-27 14:19 | -13.67606 | -73.46933 | 23623 ft | 395 kts | 101° |
| 2026-04-27 14:20 | -13.68148 | -73.44128 | 23647 ft | 405 kts | 108° |
| 2026-04-27 14:20 | -13.69266 | -73.41435 | 23654 ft | 415 kts | 116° |
| 2026-04-27 14:20 | -13.70639 | -73.38792 | 23645 ft | 424 kts | 120° |
| 2026-04-27 14:20 | -13.72159 | -73.36164 | 23641 ft | 432 kts | 120° |
| 2026-04-27 14:21 | -13.73440 | -73.33357 | 23624 ft | 438 kts | 106° |
| 2026-04-27 14:21 | -13.73856 | -73.30245 | 23629 ft | 444 kts | 89° |
| 2026-04-27 14:21 | -13.73610 | -73.27061 | 23635 ft | 449 kts | 82° |
| 2026-04-27 14:21 | -13.73139 | -73.23866 | 23615 ft | 455 kts | 80° |
| 2026-04-27 14:22 | -13.72596 | -73.20643 | 23587 ft | 460 kts | 79° |
| 2026-04-27 14:22 | -13.72021 | -73.17392 | 23560 ft | 465 kts | 79° |
| 2026-04-27 14:22 | -13.71433 | -73.14158 | 23530 ft | 463 kts | 79° |
| 2026-04-27 14:22 | -13.70843 | -73.10949 | 23396 ft | 453 kts | 79° |
| 2026-04-27 14:23 | -13.70260 | -73.07798 | 23392 ft | 443 kts | 79° |
| 2026-04-27 14:23 | -13.69687 | -73.04716 | 23388 ft | 435 kts | 79° |
| 2026-04-27 14:23 | -13.69123 | -73.01687 | 23386 ft | 428 kts | 79° |
| 2026-04-27 14:23 | -13.68565 | -72.98709 | 23386 ft | 421 kts | 79° |
| 2026-04-27 14:24 | -13.68015 | -72.95774 | 23381 ft | 415 kts | 79° |
| 2026-04-27 14:24 | -13.67485 | -72.92876 | 23389 ft | 410 kts | 81° |
| 2026-04-27 14:24 | -13.67205 | -72.89979 | 23389 ft | 405 kts | 86° |
| 2026-04-27 14:24 | -13.67041 | -72.87104 | 23382 ft | 401 kts | 87° |
| 2026-04-27 14:25 | -13.66913 | -72.84257 | 23386 ft | 397 kts | 87° |
| 2026-04-27 14:25 | -13.66800 | -72.81431 | 23388 ft | 393 kts | 88° |
| 2026-04-27 14:25 | -13.66694 | -72.78632 | 23386 ft | 390 kts | 88° |
| 2026-04-27 14:25 | -13.66591 | -72.75854 | 23386 ft | 388 kts | 88° |
| 2026-04-27 14:26 | -13.66489 | -72.73096 | 23387 ft | 385 kts | 88° |
| 2026-04-27 14:26 | -13.66387 | -72.70354 | 23386 ft | 383 kts | 88° |
| 2026-04-27 14:26 | -13.66285 | -72.67628 | 23391 ft | 381 kts | 88° |
| 2026-04-27 14:26 | -13.66182 | -72.64916 | 23396 ft | 379 kts | 88° |
| 2026-04-27 14:27 | -13.66078 | -72.62210 | 23396 ft | 377 kts | 88° |
| 2026-04-27 14:27 | -13.65974 | -72.59519 | 23399 ft | 376 kts | 88° |
| 2026-04-27 14:27 | -13.65870 | -72.56842 | 23249 ft | 368 kts | 87° |
| 2026-04-27 14:27 | -13.65771 | -72.54317 | 22795 ft | 340 kts | 87° |
| 2026-04-27 14:28 | -13.65679 | -72.51921 | 22371 ft | 334 kts | 88° |
| 2026-04-27 14:28 | -13.65617 | -72.49543 | 21994 ft | 332 kts | 89° |
| 2026-04-27 14:28 | -13.65612 | -72.47178 | 21618 ft | 329 kts | 90° |
| 2026-04-27 14:28 | -13.65633 | -72.44841 | 21258 ft | 326 kts | 90° |
| 2026-04-27 14:29 | -13.65664 | -72.42517 | 20904 ft | 324 kts | 90° |
| 2026-04-27 14:29 | -13.65697 | -72.40205 | 20555 ft | 322 kts | 90° |
| 2026-04-27 14:29 | -13.65736 | -72.37914 | 20188 ft | 319 kts | 90° |
| 2026-04-27 14:29 | -13.65779 | -72.35640 | 19832 ft | 317 kts | 91° |
| 2026-04-27 14:30 | -13.65821 | -72.33379 | 19492 ft | 315 kts | 90° |
| 2026-04-27 14:30 | -13.65868 | -72.31132 | 19158 ft | 314 kts | 90° |
| 2026-04-27 14:30 | -13.65920 | -72.28897 | 18829 ft | 312 kts | 90° |
| 2026-04-27 14:30 | -13.65944 | -72.26675 | 18464 ft | 310 kts | 89° |
| 2026-04-27 14:31 | -13.65936 | -72.24466 | 18051 ft | 309 kts | 89° |
| 2026-04-27 14:31 | -13.65909 | -72.22262 | 17674 ft | 307 kts | 88° |
| 2026-04-27 14:31 | -13.65872 | -72.20069 | 17303 ft | 307 kts | 88° |
| 2026-04-27 14:31 | -13.65830 | -72.17910 | 17007 ft | 305 kts | 88° |
| 2026-04-27 14:32 | -13.65783 | -72.15700 | 16650 ft | 304 kts | 88° |
| 2026-04-27 14:32 | -13.65736 | -72.13530 | 16312 ft | 303 kts | 88° |
| 2026-04-27 14:32 | -13.65686 | -72.11371 | 16102 ft | 297 kts | 88° |
| 2026-04-27 14:32 | -13.65635 | -72.09326 | 16153 ft | 283 kts | 88° |
| 2026-04-27 14:33 | -13.65587 | -72.07343 | 16197 ft | 273 kts | 88° |
| 2026-04-27 14:33 | -13.65571 | -72.05422 | 16216 ft | 265 kts | 90° |
| 2026-04-27 14:33 | -13.65595 | -72.03547 | 16236 ft | 260 kts | 90° |
| 2026-04-27 14:33 | -13.65633 | -72.01707 | 16236 ft | 255 kts | 90° |
| 2026-04-27 14:34 | -13.65677 | -71.99896 | 16237 ft | 251 kts | 91° |
| 2026-04-27 14:34 | -13.65722 | -71.98112 | 16240 ft | 248 kts | 91° |
| 2026-04-27 14:34 | -13.65766 | -71.96349 | 16248 ft | 246 kts | 91° |
| 2026-04-27 14:34 | -13.65812 | -71.94601 | 16250 ft | 244 kts | 91° |
| 2026-04-27 14:35 | -13.65856 | -71.92860 | 16157 ft | 247 kts | 91° |
| 2026-04-27 14:35 | -13.65901 | -71.91072 | 15946 ft | 254 kts | 91° |
| 2026-04-27 14:35 | -13.65898 | -71.89238 | 15745 ft | 258 kts | 83° |
| 2026-04-27 14:35 | -13.65632 | -71.87399 | 15548 ft | 262 kts | 79° |
| 2026-04-27 14:36 | -13.65311 | -71.85543 | 15343 ft | 265 kts | 79° |
| 2026-04-27 14:36 | -13.64994 | -71.83666 | 15139 ft | 268 kts | 79° |
| 2026-04-27 14:36 | -13.64681 | -71.81795 | 15118 ft | 262 kts | 80° |
| 2026-04-27 14:36 | -13.64737 | -71.79954 | 15108 ft | 257 kts | 103° |
| 2026-04-27 14:37 | -13.65230 | -71.78199 | 15090 ft | 254 kts | 107° |
| 2026-04-27 14:37 | -13.65793 | -71.76487 | 15082 ft | 251 kts | 109° |
| 2026-04-27 14:37 | -13.66127 | -71.74748 | 15079 ft | 248 kts | 88° |
| 2026-04-27 14:37 | -13.66026 | -71.72983 | 15075 ft | 247 kts | 84° |
| 2026-04-27 14:38 | -13.65960 | -71.71220 | 15064 ft | 247 kts | 89° |
| 2026-04-27 14:38 | -13.65982 | -71.69455 | 15050 ft | 247 kts | 90° |
| 2026-04-27 14:38 | -13.66031 | -71.67693 | 15023 ft | 247 kts | 91° |
| 2026-04-27 14:38 | -13.66091 | -71.65933 | 15001 ft | 246 kts | 91° |
| 2026-04-27 14:39 | -13.66153 | -71.64178 | 14979 ft | 245 kts | 91° |
| 2026-04-27 14:39 | -13.66215 | -71.62424 | 14974 ft | 245 kts | 91° |
| 2026-04-27 14:39 | -13.66278 | -71.60700 | 14961 ft | 245 kts | 91° |
| 2026-04-27 14:39 | -13.66314 | -71.58944 | 14948 ft | 245 kts | 83° |
| 2026-04-27 14:40 | -13.65741 | -71.57325 | 14949 ft | 242 kts | 57° |
| 2026-04-27 14:40 | -13.64873 | -71.55838 | 15160 ft | 243 kts | 51° |
| 2026-04-27 14:40 | -13.63540 | -71.54798 | 14932 ft | 242 kts | 18° |
| 2026-04-27 14:40 | -13.61891 | -71.54636 | 14972 ft | 240 kts | 353° |
| 2026-04-27 14:41 | -13.60241 | -71.54883 | 14962 ft | 240 kts | 342° |
| 2026-04-27 14:41 | -13.58852 | -71.55796 | 15183 ft | 241 kts | 310° |
| 2026-04-27 14:41 | -13.58145 | -71.57341 | 14934 ft | 241 kts | 278° |
| 2026-04-27 14:41 | -13.58346 | -71.59030 | 14977 ft | 241 kts | 246° |
| 2026-04-27 14:42 | -13.59269 | -71.60467 | 15006 ft | 242 kts | 231° |
| 2026-04-27 14:42 | -13.60354 | -71.61801 | 15010 ft | 244 kts | 229° |
| 2026-04-27 14:42 | -13.61383 | -71.63194 | 14906 ft | 249 kts | 247° |
| 2026-04-27 14:42 | -13.61688 | -71.64938 | 14745 ft | 253 kts | 277° |
| 2026-04-27 14:43 | -13.61282 | -71.66714 | 14493 ft | 261 kts | 283° |
| 2026-04-27 14:43 | -13.60926 | -71.68543 | 14041 ft | 253 kts | 281° |
| 2026-04-27 14:43 | -13.60630 | -71.70286 | 13613 ft | 243 kts | 280° |
| 2026-04-27 14:43 | -13.60357 | -71.71986 | 13097 ft | 240 kts | 279° |
| 2026-04-27 14:44 | -13.60099 | -71.73651 | 12643 ft | 230 kts | 279° |
| 2026-04-27 14:44 | -13.59818 | -71.75226 | 12328 ft | 220 kts | 285° |
| 2026-04-27 14:44 | -13.59372 | -71.76722 | 11995 ft | 217 kts | 289° |
| 2026-04-27 14:44 | -13.58838 | -71.78178 | 11937 ft | 221 kts | 293° |
| 2026-04-27 14:45 | -13.58227 | -71.79634 | 11939 ft | 222 kts | 293° |
| 2026-04-27 14:45 | -13.57631 | -71.81052 | 11891 ft | 209 kts | 295° |
| 2026-04-27 14:45 | -13.56991 | -71.82346 | 11844 ft | 203 kts | 298° |
| 2026-04-27 14:45 | -13.56350 | -71.83648 | 11856 ft | 206 kts | 296° |
| 2026-04-27 14:46 | -13.55746 | -71.84964 | 11868 ft | 198 kts | 295° |
| 2026-04-27 14:46 | -13.55147 | -71.86202 | 11668 ft | 185 kts | 297° |
| 2026-04-27 14:46 | -13.54635 | -71.87292 | 11524 ft | 159 kts | 294° |
| 2026-04-27 14:46 | -13.54276 | -71.88354 | 11295 ft | 157 kts | 286° |
| 2026-04-27 14:47 | -13.54065 | -71.89439 | 11082 ft | 154 kts | 280° |
| 2026-04-27 14:47 | -13.53919 | -71.90520 | 10929 ft | 152 kts | 276° |
| 2026-04-27 14:47 | -13.53808 | -71.91582 | 10849 ft | 159 kts | 275° |
| 2026-04-27 14:47 | -13.53689 | -71.92737 | 10751 ft | 162 kts | 276° |
| 2026-04-27 14:48 | -13.53587 | -71.93737 | 10798 ft | 117 kts | 277° |
| 2026-04-27 14:48 | -13.53485 | -71.94734 | 10825 ft | 33 kts | 275° |
| 2026-04-27 14:48 | -13.53496 | -71.94897 | 10835 ft | 18 kts | 239° |
| 2026-04-27 14:49 | -13.53556 | -71.94943 | 10844 ft | 8 kts | 185° |
| 2026-04-27 14:49 | -13.53608 | -71.94888 | 10835 ft | 20 kts | 95° |
| 2026-04-27 14:49 | -13.53622 | -71.94736 | 10826 ft | 22 kts | 97° |
| 2026-04-27 14:49 | -13.53639 | -71.94572 | 10816 ft | 24 kts | 96° |
| 2026-04-27 14:50 | -13.53653 | -71.94438 | 10814 ft | 16 kts | 95° |
| 2026-04-27 14:50 | -13.53663 | -71.94337 | 10814 ft | 13 kts | 97° |
| 2026-04-27 14:50 | -13.53697 | -71.94278 | 10814 ft | 8 kts | 157° |
| 2026-04-27 14:50 | -13.53745 | -71.94267 | 10812 ft | 6 kts | 184° |
| 2026-04-27 14:51 | -13.53772 | -71.94282 | 10814 ft | 3 kts | 239° |
| 2026-04-27 14:51 | -13.53773 | -71.94299 | 10814 ft | 3 kts | 275° |
| 2026-04-27 14:51 | -13.53771 | -71.94318 | 10814 ft | 2 kts | 277° |
| 2026-04-27 14:51 | -13.53771 | -71.94320 | 10814 ft | 0 kts | 277° |